Alva, Oklahoma
Current Conditions -  °F | °C
As of 6:50 AM on Tuesday 21 Oct 2014 (Local Time) from KAVK Reporting Station
Haze Haze  
Wind Chill: 13°   Ceiling: 400
Heat Index: 13°   Visibility: 6mi
Dew Point: 13°   Wind: 5mph
Humidity: 100%   Direction: 60°ENE
Pressure: 30.06"   Gusts: NA
Location:  36.8°N, 98.67°W
Report Text: KAVK 211150Z AUTO 06004KT 6SM BR OVC004 13/13 A3006 RMK AO2
Loading
Personal Weather Stations






























Interactive Weather Map
Tropical Storm Tracking
New forecast layout! Learn more

10-Day Weather Forecast

Advertisements
Track Severe Weather on mobile